Time;durP1;ratioP1;P1;durP2;ratioP2;P2;SDS_P1;SDS_P2;PMS_P1;PMS_P2;Temp;Humidity;BMP_temperature;BMP_pressure;BME280_temperature;BME280_humidity;BME280_pressure;Samples;Min_cycle;Max_cycle;Signal;HPM_P1;HPM_P2
2024/03/13 00:01:06;;;;;;;1160.23;999.90;;;7.90;99.90;;;;;;5060316;28;20494;-65
2024/03/13 00:03:37;;;;;;;1146.00;999.90;;;7.90;99.90;;;;;;5066317;28;20834;-65
2024/03/13 00:06:04;;;;;;;1147.43;999.90;;;7.90;99.90;;;;;;5067139;28;20454;-64
2024/03/13 00:08:31;;;;;;;1146.00;999.90;;;7.90;99.90;;;;;;5057101;28;20504;-65
2024/03/13 00:10:58;;;;;;;1138.67;999.90;;;7.90;99.90;;;;;;5054670;28;20458;-65
2024/03/13 00:13:27;;;;;;;1128.57;999.90;;;7.90;99.90;;;;;;5057464;28;20477;-65
2024/03/13 00:15:54;;;;;;;1146.33;999.90;;;7.90;99.90;;;;;;5068896;28;20982;-64
2024/03/13 00:18:21;;;;;;;1137.93;999.90;;;7.90;99.90;;;;;;5071492;28;21158;-65
2024/03/13 00:20:49;;;;;;;1131.93;999.90;;;7.90;99.90;;;;;;5062813;28;20455;-65
2024/03/13 00:23:16;;;;;;;1132.57;999.90;;;7.90;99.90;;;;;;5064231;28;20845;-65
2024/03/13 00:25:43;;;;;;;1138.17;999.90;;;7.90;99.90;;;;;;5062944;28;20972;-65
2024/03/13 00:28:10;;;;;;;1141.40;999.90;;;7.90;99.90;;;;;;5054898;28;20953;-65
2024/03/13 00:30:37;;;;;;;1128.70;999.90;;;7.90;99.90;;;;;;5071176;28;20450;-65
2024/03/13 00:33:04;;;;;;;1118.50;999.90;;;8.00;99.90;;;;;;5071298;28;20478;-65
2024/03/13 00:35:31;;;;;;;1127.10;999.90;;;7.90;99.90;;;;;;5056324;28;20458;-65
2024/03/13 00:38:00;;;;;;;1148.77;999.90;;;8.00;99.90;;;;;;5061706;28;20451;-65
2024/03/13 00:40:27;;;;;;;1141.20;999.90;;;8.00;99.90;;;;;;5055162;28;20466;-65
2024/03/13 00:42:54;;;;;;;1150.83;999.90;;;8.00;99.90;;;;;;5072716;28;20486;-64
2024/03/13 00:45:21;;;;;;;1137.57;999.90;;;8.00;99.90;;;;;;5070743;28;20463;-65
2024/03/13 00:47:48;;;;;;;1138.47;999.90;;;8.00;99.90;;;;;;5065029;28;20461;-65
2024/03/13 00:50:16;;;;;;;1132.33;999.90;;;8.00;99.90;;;;;;5062826;28;20489;-65
2024/03/13 00:52:43;;;;;;;1119.97;999.90;;;8.00;99.90;;;;;;5075136;28;20493;-65
2024/03/13 00:55:11;;;;;;;1123.23;999.90;;;8.00;99.90;;;;;;5075254;28;20500;-65
2024/03/13 00:57:41;;;;;;;1112.40;999.90;;;8.00;99.90;;;;;;5074244;28;20516;-65
2024/03/13 01:00:10;;;;;;;1116.17;999.90;;;8.00;99.90;;;;;;5063268;28;20508;-65
2024/03/13 01:02:37;;;;;;;1105.27;996.57;;;8.00;99.90;;;;;;5070356;28;20862;-65
2024/03/13 01:05:05;;;;;;;1102.03;992.00;;;8.00;99.90;;;;;;5058274;28;20459;-65
2024/03/13 01:07:33;;;;;;;1132.07;999.90;;;8.00;99.90;;;;;;5059524;28;20478;-64
2024/03/13 01:10:03;;;;;;;1128.77;999.90;;;8.00;99.90;;;;;;5073286;28;20908;-63
2024/03/13 01:12:31;;;;;;;1115.27;999.90;;;8.00;99.90;;;;;;5068387;28;20447;-64
2024/03/13 01:14:59;;;;;;;1122.37;999.90;;;8.00;99.90;;;;;;5064993;28;20537;-65
2024/03/13 01:17:25;;;;;;;1136.83;999.90;;;8.00;99.90;;;;;;5060736;28;20455;-64
2024/03/13 01:19:53;;;;;;;1115.77;999.90;;;8.00;99.90;;;;;;5055495;28;20465;-65
2024/03/13 01:22:22;;;;;;;1102.60;993.60;;;8.00;99.90;;;;;;5074361;28;20492;-65
2024/03/13 01:24:49;;;;;;;1099.80;991.40;;;8.00;99.90;;;;;;5065807;28;20537;-65
2024/03/13 01:27:15;;;;;;;1116.00;999.90;;;8.00;99.90;;;;;;5069815;28;20451;-63
2024/03/13 01:29:47;;;;;;;1106.77;998.10;;;8.00;99.90;;;;;;5054510;28;20451;-64
2024/03/13 01:32:15;;;;;;;1086.90;978.80;;;8.00;99.90;;;;;;5046597;28;20459;-65
2024/03/13 01:34:42;;;;;;;1081.80;975.00;;;8.10;99.90;;;;;;5054138;28;20447;-63
2024/03/13 01:39:53;;;;;;;1108.60;999.63;;;8.10;99.90;;;;;;5064412;28;20962;-65
2024/03/13 01:56:24;;;;;;;1086.70;979.70;;;8.10;99.90;;;;;;5073495;28;20481;-65
2024/03/13 01:59:02;;;;;;;1091.07;983.40;;;8.10;99.90;;;;;;5056126;28;20451;-64
2024/03/13 02:04:15;;;;;;;1069.97;961.70;;;8.10;99.90;;;;;;5061433;28;20462;-65
2024/03/13 02:06:42;;;;;;;1075.20;965.37;;;8.10;99.90;;;;;;5069378;28;20949;-64
2024/03/13 02:09:09;;;;;;;1075.90;967.50;;;8.10;99.90;;;;;;5073635;28;20456;-65
2024/03/13 02:11:36;;;;;;;1078.27;969.47;;;8.10;99.90;;;;;;5057952;28;20453;-64
2024/03/13 02:14:04;;;;;;;1081.33;971.60;;;8.10;99.90;;;;;;5072385;28;20477;-65
2024/03/13 02:16:32;;;;;;;1099.03;989.07;;;8.10;99.90;;;;;;5073083;28;20445;-65
2024/03/13 02:19:01;;;;;;;1113.40;999.90;;;8.10;99.90;;;;;;5072952;28;20454;-64
2024/03/13 02:21:28;;;;;;;1096.00;987.60;;;8.10;99.90;;;;;;5073303;28;20551;-63
2024/03/13 02:23:56;;;;;;;1087.07;978.93;;;8.10;99.90;;;;;;5056553;28;20467;-64
2024/03/13 02:26:24;;;;;;;1097.97;990.47;;;8.10;99.90;;;;;;5046968;28;21003;-65
2024/03/13 02:28:52;;;;;;;1095.70;987.20;;;8.10;99.90;;;;;;5046198;28;20486;-65
2024/03/13 02:31:19;;;;;;;1072.17;965.07;;;8.10;99.90;;;;;;5040129;28;20446;-64
2024/03/13 02:33:46;;;;;;;1049.77;943.37;;;8.10;99.90;;;;;;5054835;28;20482;-65
2024/03/13 02:36:13;;;;;;;1055.60;949.17;;;8.10;99.90;;;;;;5039991;28;20452;-63
2024/03/13 02:38:40;;;;;;;1056.10;951.00;;;8.10;99.90;;;;;;5039862;28;20456;-65
2024/03/13 02:41:07;;;;;;;1055.43;949.57;;;8.20;99.90;;;;;;5062688;28;20450;-65
2024/03/13 02:43:36;;;;;;;1040.20;933.03;;;8.20;99.90;;;;;;5055047;28;20489;-65
2024/03/13 02:46:03;;;;;;;1061.20;953.27;;;8.20;99.90;;;;;;5054707;28;20461;-65
2024/03/13 02:48:30;;;;;;;1083.33;975.83;;;8.20;99.90;;;;;;5055342;28;20832;-65
2024/03/13 02:50:57;;;;;;;1083.30;974.50;;;8.20;99.90;;;;;;5055258;28;20450;-65
2024/03/13 02:53:24;;;;;;;1063.27;954.50;;;8.20;99.90;;;;;;5046489;28;20474;-65
2024/03/13 02:55:53;;;;;;;1067.80;960.33;;;8.20;99.90;;;;;;5053514;28;20454;-65
2024/03/13 02:58:21;;;;;;;1058.73;951.80;;;8.20;99.90;;;;;;5048418;28;20832;-65
2024/03/13 03:00:48;;;;;;;1045.43;939.00;;;8.20;99.90;;;;;;5045794;28;20532;-65
2024/03/13 03:03:16;;;;;;;1047.30;940.30;;;8.20;99.90;;;;;;5050602;28;20573;-65
2024/03/13 03:05:43;;;;;;;1065.53;958.67;;;8.20;99.90;;;;;;5039288;28;20480;-65
2024/03/13 03:08:11;;;;;;;1065.00;958.43;;;8.30;99.90;;;;;;5043097;28;20794;-65
2024/03/13 03:10:38;;;;;;;1064.10;957.10;;;8.30;99.90;;;;;;5042268;28;20454;-65
2024/03/13 03:13:05;;;;;;;1067.97;960.80;;;8.30;99.90;;;;;;5043115;28;20483;-65
2024/03/13 03:15:34;;;;;;;1092.17;983.13;;;8.30;99.90;;;;;;5048950;28;21009;-65
2024/03/13 03:18:01;;;;;;;1078.90;971.43;;;8.30;99.90;;;;;;5054841;28;20450;-65
2024/03/13 03:20:28;;;;;;;1088.70;981.70;;;8.30;99.90;;;;;;5046254;28;20499;-65
2024/03/13 03:22:55;;;;;;;1087.47;977.90;;;8.30;99.90;;;;;;5054100;28;20482;-65
2024/03/13 03:25:28;;;;;;;1091.97;982.90;;;8.30;99.90;;;;;;5054470;28;20477;-64
2024/03/13 03:27:55;;;;;;;1106.27;996.73;;;8.30;99.90;;;;;;5053604;28;20545;-65
2024/03/13 03:30:23;;;;;;;1085.90;979.00;;;8.30;99.90;;;;;;5047906;28;20458;-65
2024/03/13 03:32:50;;;;;;;1063.67;957.30;;;8.30;99.90;;;;;;5054434;28;20841;-64
2024/03/13 03:35:18;;;;;;;1056.20;948.80;;;8.30;99.90;;;;;;5049896;28;20447;-65
2024/03/13 03:37:45;;;;;;;1054.90;948.60;;;8.30;99.90;;;;;;5050635;28;20505;-65
2024/03/13 03:40:13;;;;;;;1069.47;961.80;;;8.40;99.90;;;;;;5038885;28;20510;-65
2024/03/13 03:42:40;;;;;;;1062.47;954.50;;;8.30;99.90;;;;;;5046837;28;20570;-64
2024/03/13 03:45:08;;;;;;;1037.53;932.03;;;8.40;99.90;;;;;;5050634;28;20947;-65
2024/03/13 03:47:35;;;;;;;1042.30;937.00;;;8.40;99.90;;;;;;5049290;28;20512;-65
2024/03/13 03:50:02;;;;;;;1047.67;942.17;;;8.40;99.90;;;;;;5053874;28;20988;-65
2024/03/13 03:52:29;;;;;;;1055.17;949.80;;;8.40;99.90;;;;;;5053928;28;20446;-65
2024/03/13 03:54:55;;;;;;;1059.30;952.80;;;8.40;99.90;;;;;;5045458;28;20454;-65
2024/03/13 03:57:22;;;;;;;1070.83;964.80;;;8.40;99.90;;;;;;5053869;28;20601;-65
2024/03/13 03:59:49;;;;;;;1074.23;968.73;;;8.40;99.90;;;;;;5045027;28;20457;-65
2024/03/13 04:02:16;;;;;;;1051.90;947.50;;;8.40;99.90;;;;;;5042246;28;20483;-65
2024/03/13 04:04:43;;;;;;;1038.47;933.23;;;8.40;99.90;;;;;;5041924;28;20450;-65
2024/03/13 04:07:11;;;;;;;1093.60;983.50;;;8.40;99.90;;;;;;5045255;28;20450;-65
2024/03/13 04:09:38;;;;;;;1051.87;945.10;;;8.40;99.90;;;;;;5046139;28;20450;-64
2024/03/13 04:12:05;;;;;;;1036.87;931.60;;;8.40;99.90;;;;;;5054504;28;20462;-65
2024/03/13 04:14:32;;;;;;;1049.77;942.67;;;8.40;99.90;;;;;;5058073;28;20470;-65
2024/03/13 04:16:59;;;;;;;1064.87;957.50;;;8.40;99.90;;;;;;5057875;28;20449;-65
2024/03/13 04:19:26;;;;;;;1053.43;948.10;;;8.40;99.90;;;;;;5057957;28;20458;-64
2024/03/13 04:21:53;;;;;;;1056.83;952.00;;;8.40;99.90;;;;;;5056350;28;20481;-65
2024/03/13 04:24:20;;;;;;;1049.00;944.37;;;8.40;99.90;;;;;;5050843;28;20474;-64
2024/03/13 04:26:46;;;;;;;1078.80;973.80;;;8.50;99.90;;;;;;5048921;28;20478;-65
2024/03/13 04:29:13;;;;;;;1036.13;931.93;;;8.40;99.90;;;;;;5041806;28;20450;-65
2024/03/13 04:31:40;;;;;;;1050.37;944.67;;;8.50;99.90;;;;;;5057710;28;20863;-64
2024/03/13 04:34:08;;;;;;;1044.67;939.40;;;8.50;99.90;;;;;;5057535;28;20465;-64
2024/03/13 04:36:38;;;;;;;1101.87;993.70;;;8.50;99.90;;;;;;5057210;28;20457;-65
2024/03/13 04:39:05;;;;;;;1085.50;978.37;;;8.50;99.90;;;;;;5058148;28;20541;-64
2024/03/13 04:41:33;;;;;;;1079.30;973.07;;;8.50;99.90;;;;;;5050882;28;21038;-65
2024/03/13 04:44:00;;;;;;;1080.60;974.40;;;8.50;99.90;;;;;;5055980;28;20551;-65
2024/03/13 04:46:27;;;;;;;1100.07;993.60;;;8.50;99.90;;;;;;5048798;28;20541;-64
2024/03/13 04:48:53;;;;;;;1081.53;974.60;;;8.50;99.90;;;;;;5047344;28;20454;-64
2024/03/13 04:51:20;;;;;;;1065.00;960.60;;;8.50;99.90;;;;;;5042522;28;20969;-64
2024/03/13 04:53:47;;;;;;;1118.33;999.90;;;8.50;99.90;;;;;;5051214;28;20470;-65
2024/03/13 04:56:14;;;;;;;1107.63;999.90;;;8.50;99.90;;;;;;5051708;28;20447;-65
2024/03/13 04:58:41;;;;;;;1078.40;974.00;;;8.50;99.90;;;;;;5033895;28;20458;-65
2024/03/13 05:01:08;;;;;;;1040.37;935.17;;;8.50;99.90;;;;;;5053448;28;20893;-65
2024/03/13 05:03:35;;;;;;;1049.70;944.70;;;8.60;99.90;;;;;;5036875;28;20510;-65
2024/03/13 05:06:02;;;;;;;1052.83;947.17;;;8.50;99.90;;;;;;5036596;28;20535;-65
2024/03/13 05:08:29;;;;;;;1070.97;965.50;;;8.60;99.90;;;;;;5036905;28;20455;-65
2024/03/13 05:10:57;;;;;;;1057.40;953.03;;;8.60;99.90;;;;;;5037123;28;20478;-64
2024/03/13 05:13:23;;;;;;;1035.10;929.90;;;8.60;99.90;;;;;;5037022;28;20471;-64
2024/03/13 05:15:51;;;;;;;1057.70;952.57;;;8.60;99.90;;;;;;5036544;28;20482;-65
2024/03/13 05:18:18;;;;;;;1066.30;961.13;;;8.60;99.90;;;;;;5037019;28;20554;-65
2024/03/13 05:20:45;;;;;;;1051.70;946.30;;;8.60;99.90;;;;;;5036719;28;20447;-64
2024/03/13 05:23:12;;;;;;;1069.90;965.47;;;8.60;99.90;;;;;;5036297;28;20489;-65
2024/03/13 05:25:39;;;;;;;1072.40;967.47;;;8.60;99.90;;;;;;5037081;28;20451;-64
2024/03/13 05:28:06;;;;;;;1063.77;957.97;;;8.70;99.90;;;;;;5036836;28;20868;-65
2024/03/13 05:30:33;;;;;;;1046.77;941.87;;;8.60;99.90;;;;;;5036571;28;20451;-65
2024/03/13 05:33:00;;;;;;;1041.20;934.60;;;8.60;99.90;;;;;;5036316;28;20471;-65
2024/03/13 05:35:27;;;;;;;1045.80;940.30;;;8.70;99.90;;;;;;5035712;28;20457;-65
2024/03/13 05:37:54;;;;;;;1069.87;960.37;;;8.60;99.90;;;;;;5036356;28;20466;-65
2024/03/13 05:40:21;;;;;;;1059.00;950.63;;;8.70;99.90;;;;;;5033074;28;20937;-65
2024/03/13 05:42:48;;;;;;;1040.40;931.90;;;8.70;99.90;;;;;;5049692;28;20497;-65
2024/03/13 05:45:15;;;;;;;1069.90;960.00;;;8.70;99.90;;;;;;5036420;28;20455;-65
2024/03/13 05:47:42;;;;;;;1056.47;947.10;;;8.70;99.90;;;;;;5035915;28;20455;-64
2024/03/13 05:50:09;;;;;;;1049.47;940.47;;;8.70;99.90;;;;;;5035929;28;20451;-65
2024/03/13 05:52:36;;;;;;;1052.13;942.60;;;8.70;99.90;;;;;;5036432;28;20467;-65
2024/03/13 05:55:04;;;;;;;1093.77;985.03;;;8.70;99.90;;;;;;5036027;28;20463;-65
2024/03/13 05:57:31;;;;;;;1108.37;998.77;;;8.70;99.90;;;;;;5035817;28;20947;-65
2024/03/13 05:59:57;;;;;;;1100.10;991.70;;;8.80;99.90;;;;;;5035926;28;20467;-64
2024/03/13 06:02:25;;;;;;;1114.77;999.90;;;8.80;99.90;;;;;;5035512;28;20469;-65
2024/03/13 06:05:09;;;;;;;1113.13;999.90;;;8.80;99.90;;;;;;5036217;28;20459;-65
2024/03/13 06:07:36;;;;;;;1111.30;999.90;;;8.90;99.90;;;;;;5038346;28;20466;-65
2024/03/13 06:10:03;;;;;;;1114.20;999.90;;;9.00;99.90;;;;;;5036141;28;20466;-65
2024/03/13 06:12:30;;;;;;;1117.93;999.90;;;9.00;99.90;;;;;;5038833;28;20451;-64
2024/03/13 06:14:57;;;;;;;1103.40;993.87;;;9.10;99.90;;;;;;5036053;28;20537;-63
2024/03/13 06:17:24;;;;;;;1128.43;999.90;;;9.10;99.90;;;;;;5035918;28;20453;-65
2024/03/13 06:19:51;;;;;;;1102.20;994.20;;;9.10;99.90;;;;;;5035795;28;20447;-65
2024/03/13 06:22:18;;;;;;;1074.67;965.67;;;9.10;99.90;;;;;;5035683;28;20454;-64
2024/03/13 06:24:46;;;;;;;1074.20;966.90;;;9.20;99.90;;;;;;5035441;28;20487;-65
2024/03/13 06:27:15;;;;;;;1074.30;967.33;;;9.20;99.90;;;;;;5035332;28;20459;-65
2024/03/13 06:29:57;;;;;;;1077.97;971.23;;;9.30;99.90;;;;;;5035601;28;20447;-64
2024/03/13 06:32:25;;;;;;;1106.60;999.30;;;9.30;99.90;;;;;;5037831;28;20458;-65
2024/03/13 06:34:52;;;;;;;1105.10;996.43;;;9.40;99.90;;;;;;5034303;28;20443;-65
2024/03/13 06:37:19;;;;;;;1103.87;997.17;;;9.50;99.90;;;;;;5035141;28;20451;-65
2024/03/13 06:39:46;;;;;;;1099.27;992.13;;;9.50;99.90;;;;;;5035441;28;20446;-65
2024/03/13 06:42:13;;;;;;;1086.20;979.70;;;9.60;99.90;;;;;;5035016;28;20463;-65
2024/03/13 06:44:39;;;;;;;1077.60;970.83;;;9.70;99.90;;;;;;5034937;28;20474;-65
2024/03/13 06:47:07;;;;;;;1073.33;966.20;;;9.80;99.90;;;;;;5034942;28;20447;-65
2024/03/13 06:49:35;;;;;;;1103.83;997.13;;;9.80;99.90;;;;;;5035283;28;20458;-64
2024/03/13 06:52:02;;;;;;;1097.20;990.00;;;10.00;99.90;;;;;;5035103;28;20451;-65
2024/03/13 06:54:29;;;;;;;1094.77;987.50;;;10.10;99.90;;;;;;5035223;28;20566;-65
2024/03/13 06:56:56;;;;;;;1054.67;949.20;;;10.20;99.90;;;;;;5032793;28;20520;-65
2024/03/13 06:59:23;;;;;;;1044.43;941.13;;;10.40;99.90;;;;;;5035184;28;20474;-65
2024/03/13 07:01:51;;;;;;;1025.63;921.33;;;10.40;99.90;;;;;;5034968;28;20526;-65
2024/03/13 07:04:18;;;;;;;1021.67;917.27;;;10.50;99.90;;;;;;5034553;28;20487;-66
2024/03/13 07:06:46;;;;;;;1043.13;940.33;;;10.50;99.90;;;;;;5030371;28;20462;-64
2024/03/13 07:09:13;;;;;;;1044.53;940.53;;;10.60;99.90;;;;;;5052899;28;20481;-65
2024/03/13 07:11:40;;;;;;;996.03;892.77;;;10.70;99.90;;;;;;5046518;28;20490;-65
2024/03/13 07:14:11;;;;;;;988.87;884.87;;;10.70;99.90;;;;;;5052904;28;20466;-65
2024/03/13 07:16:39;;;;;;;989.33;885.33;;;10.70;99.90;;;;;;5046667;28;20501;-65
2024/03/13 07:19:07;;;;;;;983.60;878.43;;;10.80;99.90;;;;;;5052814;28;20471;-65
2024/03/13 07:21:35;;;;;;;990.10;886.33;;;10.90;99.90;;;;;;5047692;28;20820;-64
2024/03/13 07:24:03;;;;;;;997.67;894.40;;;10.90;99.90;;;;;;5043762;28;20502;-65
2024/03/13 07:26:31;;;;;;;994.93;893.47;;;10.90;99.90;;;;;;5054176;28;20450;-65
2024/03/13 07:28:58;;;;;;;981.60;879.70;;;10.90;99.90;;;;;;5053616;28;20486;-65
2024/03/13 07:31:26;;;;;;;988.73;886.97;;;11.00;99.90;;;;;;5048486;28;20455;-65
2024/03/13 07:33:53;;;;;;;1042.07;938.97;;;10.90;99.90;;;;;;5052060;28;20470;-65
2024/03/13 07:36:21;;;;;;;1039.77;939.53;;;11.00;99.90;;;;;;5037509;28;20445;-65
2024/03/13 07:38:48;;;;;;;1019.23;920.40;;;11.00;99.90;;;;;;5031876;28;20952;-65
2024/03/13 07:41:15;;;;;;;1002.87;905.20;;;11.00;99.90;;;;;;5050086;28;20481;-65
2024/03/13 07:43:42;;;;;;;991.67;892.30;;;11.00;99.90;;;;;;5041615;28;20482;-65
2024/03/13 07:46:09;;;;;;;971.03;874.03;;;11.00;99.90;;;;;;5041825;28;20451;-64
2024/03/13 07:48:36;;;;;;;944.33;845.23;;;11.10;99.90;;;;;;5049175;28;20454;-65
2024/03/13 07:51:03;;;;;;;989.90;890.50;;;11.10;99.90;;;;;;5036613;28;20456;-65
2024/03/13 07:53:31;;;;;;;1000.97;900.97;;;11.20;99.90;;;;;;5053520;28;20553;-65
2024/03/13 07:55:59;;;;;;;996.87;896.10;;;11.30;99.90;;;;;;5053565;28;20448;-63
2024/03/13 07:58:25;;;;;;;1033.17;933.30;;;11.30;99.90;;;;;;5053575;28;20519;-65
2024/03/13 08:00:53;;;;;;;1032.23;935.13;;;11.40;99.90;;;;;;5053625;28;20956;-65
2024/03/13 08:03:20;;;;;;;1017.87;919.23;;;11.30;99.90;;;;;;5053752;28;20486;-65
2024/03/13 08:05:47;;;;;;;1048.33;951.17;;;11.30;99.90;;;;;;5053601;28;20450;-64
2024/03/13 08:08:14;;;;;;;1032.30;936.60;;;11.30;99.90;;;;;;5054053;28;20964;-65
2024/03/13 08:10:41;;;;;;;1014.40;917.47;;;11.30;99.90;;;;;;5044876;28;20526;-64
2024/03/13 08:13:08;;;;;;;1017.17;920.70;;;11.30;99.90;;;;;;5053157;28;20471;-65
2024/03/13 08:15:35;;;;;;;1051.27;955.17;;;11.30;99.90;;;;;;5034711;28;20962;-64
2024/03/13 08:18:02;;;;;;;1051.97;956.77;;;11.30;99.90;;;;;;5021289;28;20917;-65
2024/03/13 08:20:29;;;;;;;1043.43;948.30;;;11.20;99.90;;;;;;5032832;28;20456;-65
2024/03/13 08:22:57;;;;;;;1036.33;941.77;;;11.20;99.90;;;;;;5049961;28;20860;-64
2024/03/13 08:25:24;;;;;;;1049.57;954.53;;;11.20;99.90;;;;;;5041671;28;20848;-63
2024/03/13 08:27:51;;;;;;;1057.07;963.00;;;11.20;99.90;;;;;;5049656;28;20454;-65
2024/03/13 08:30:18;;;;;;;1078.07;983.80;;;11.10;99.90;;;;;;5053306;28;20454;-63
2024/03/13 08:32:45;;;;;;;1081.37;987.77;;;11.10;99.90;;;;;;5045492;28;20560;-65
2024/03/13 08:35:13;;;;;;;1082.20;987.77;;;11.10;99.90;;;;;;5053093;28;20918;-65
2024/03/13 08:37:41;;;;;;;1064.33;970.43;;;11.10;99.90;;;;;;5045119;28;20488;-66
2024/03/13 08:40:11;;;;;;;1116.07;999.90;;;11.20;99.90;;;;;;5040770;28;20970;-65
2024/03/13 08:42:39;;;;;;;1106.82;999.90;;;11.20;99.90;;;;;;5040212;28;20449;-65
2024/03/13 08:45:08;;;;;;;1102.90;999.90;;;11.20;99.90;;;;;;5053304;28;20612;-65
2024/03/13 08:47:35;;;;;;;1106.00;999.90;;;11.20;99.90;;;;;;5054408;28;20457;-65
2024/03/13 08:50:03;;;;;;;1102.67;999.90;;;11.30;99.90;;;;;;5043791;28;20451;-65
2024/03/13 08:52:30;;;;;;;1076.73;985.43;;;11.40;99.90;;;;;;5048452;28;20957;-66
2024/03/13 08:54:57;;;;;;;1071.57;979.90;;;11.50;99.90;;;;;;5054099;28;20453;-65
2024/03/13 08:57:28;;;;;;;1089.67;999.10;;;11.60;99.90;;;;;;5048160;28;20900;-65
2024/03/13 08:59:57;;;;;;;1104.57;999.90;;;11.70;99.90;;;;;;5037689;28;20459;-65
2024/03/13 09:02:24;;;;;;;1087.67;995.90;;;11.90;99.90;;;;;;5051120;28;20454;-65
2024/03/13 09:04:53;;;;;;;1081.60;993.73;;;11.90;99.90;;;;;;5048895;28;20478;-65
2024/03/13 09:07:20;;;;;;;1062.93;977.70;;;12.00;99.90;;;;;;5057274;28;20461;-65
2024/03/13 09:09:47;;;;;;;1041.93;958.53;;;12.20;99.90;;;;;;5048578;28;20724;-66
2024/03/13 09:12:15;;;;;;;1007.43;926.90;;;12.20;99.90;;;;;;5040827;28;20454;-66
2024/03/13 09:14:42;;;;;;;969.07;891.17;;;12.20;99.90;;;;;;5048812;28;20478;-66
2024/03/13 09:17:09;;;;;;;949.03;871.83;;;12.30;99.90;;;;;;5045339;28;20473;-66
2024/03/13 09:19:37;;;;;;;924.07;849.67;;;12.40;99.90;;;;;;5045377;28;20505;-65
2024/03/13 09:22:04;;;;;;;897.07;826.13;;;12.50;99.90;;;;;;5055972;28;20960;-66
2024/03/13 09:24:31;;;;;;;873.03;803.23;;;12.60;99.90;;;;;;5056566;28;20565;-65
2024/03/13 09:26:58;;;;;;;858.00;791.00;;;12.60;99.90;;;;;;5056383;28;20507;-67
2024/03/13 09:29:25;;;;;;;838.70;777.97;;;12.50;99.90;;;;;;5056901;28;20454;-66
2024/03/13 09:31:52;;;;;;;843.70;783.07;;;12.60;99.90;;;;;;5056606;28;20450;-66
2024/03/13 09:34:19;;;;;;;855.30;795.70;;;12.70;99.90;;;;;;5056324;28;20493;-66
2024/03/13 09:36:46;;;;;;;856.93;800.73;;;12.70;99.90;;;;;;5055943;28;20954;-66
2024/03/13 09:39:13;;;;;;;856.57;802.67;;;12.70;99.90;;;;;;5040131;28;20458;-66
2024/03/13 09:41:40;;;;;;;864.07;809.17;;;12.60;99.90;;;;;;5048524;28;20874;-66
2024/03/13 09:44:07;;;;;;;854.87;802.07;;;12.60;99.90;;;;;;5045018;28;21005;-66
2024/03/13 09:46:34;;;;;;;867.40;813.40;;;12.50;99.90;;;;;;5051253;28;20453;-66
2024/03/13 09:49:01;;;;;;;861.20;807.00;;;12.70;99.90;;;;;;5056361;28;20843;-66
2024/03/13 09:51:28;;;;;;;863.87;812.07;;;12.80;99.90;;;;;;5050600;28;20854;-66
2024/03/13 09:53:55;;;;;;;846.57;801.63;;;13.00;99.90;;;;;;5053934;28;20474;-67
2024/03/13 09:56:22;;;;;;;841.63;797.63;;;13.10;99.90;;;;;;5047941;28;20450;-66
2024/03/13 09:58:50;;;;;;;848.23;805.00;;;13.00;99.90;;;;;;5056183;28;20465;-67
2024/03/13 10:01:18;;;;;;;841.03;799.73;;;13.00;99.90;;;;;;5048096;28;20447;-66
2024/03/13 10:03:47;;;;;;;845.37;803.80;;;12.80;99.90;;;;;;5056022;28;20564;-65
2024/03/13 10:06:14;;;;;;;847.77;806.93;;;12.80;99.90;;;;;;5055608;28;20546;-66
2024/03/13 10:08:42;;;;;;;849.83;809.53;;;12.80;99.90;;;;;;5056044;28;20454;-66
2024/03/13 10:11:09;;;;;;;859.53;816.67;;;12.80;99.90;;;;;;5056076;28;20834;-66
2024/03/13 10:13:37;;;;;;;830.27;791.37;;;12.90;99.90;;;;;;5047580;28;21033;-67
2024/03/13 10:16:05;;;;;;;794.50;759.80;;;12.90;99.90;;;;;;5044557;28;20535;-66
2024/03/13 10:18:32;;;;;;;833.13;794.33;;;12.80;99.90;;;;;;5050695;28;20489;-66
2024/03/13 10:20:59;;;;;;;832.13;793.60;;;12.90;99.90;;;;;;5055248;28;20968;-67
2024/03/13 10:23:26;;;;;;;803.87;768.50;;;13.10;99.90;;;;;;5049471;28;20528;-66
2024/03/13 10:25:53;;;;;;;732.70;702.90;;;13.40;99.90;;;;;;5043179;28;20887;-66
2024/03/13 10:28:23;;;;;;;728.00;699.07;;;13.50;99.90;;;;;;5048977;28;20458;-66
2024/03/13 10:30:51;;;;;;;630.87;607.83;;;13.60;99.90;;;;;;5047123;28;20455;-66
2024/03/13 10:33:18;;;;;;;637.60;614.33;;;13.80;99.90;;;;;;5048411;28;20466;-66
2024/03/13 10:35:45;;;;;;;388.70;376.10;;;14.10;99.90;;;;;;5035322;28;20452;-64
2024/03/13 10:38:12;;;;;;;337.63;326.73;;;13.90;99.90;;;;;;5047898;28;20873;-66
2024/03/13 10:40:39;;;;;;;240.17;232.63;;;13.70;99.90;;;;;;5048119;28;20459;-66
2024/03/13 10:43:09;;;;;;;232.67;225.27;;;13.80;99.90;;;;;;5045837;28;20896;-66
2024/03/13 10:45:36;;;;;;;215.90;208.87;;;13.70;99.90;;;;;;5054989;28;20837;-67
2024/03/13 10:48:06;;;;;;;158.60;153.43;;;13.70;99.90;;;;;;5046824;28;20458;-66
2024/03/13 10:50:33;;;;;;;136.73;131.80;;;13.70;99.90;;;;;;5055611;28;20450;-66
2024/03/13 10:53:01;;;;;;;151.67;146.67;;;13.80;99.90;;;;;;5055202;28;20470;-66
2024/03/13 10:55:28;;;;;;;158.57;152.87;;;13.80;99.90;;;;;;5046944;28;20447;-63
2024/03/13 10:57:55;;;;;;;186.00;179.87;;;13.80;99.90;;;;;;5046787;28;20446;-65
2024/03/13 11:00:22;;;;;;;146.53;141.40;;;13.90;99.90;;;;;;5054770;28;20484;-66
2024/03/13 11:02:50;;;;;;;126.37;122.20;;;14.00;99.90;;;;;;5054599;28;20478;-66
2024/03/13 11:05:17;;;;;;;103.70;100.00;;;14.10;99.90;;;;;;5050634;28;20487;-66
2024/03/13 11:07:45;;;;;;;71.37;68.47;;;14.40;99.50;;;;;;5050953;28;20446;-67
2024/03/13 11:10:14;;;;;;;41.87;39.73;;;14.40;99.40;;;;;;5034821;28;20451;-67
2024/03/13 11:12:41;;;;;;;30.13;28.63;;;14.40;99.40;;;;;;5034956;28;20494;-67
2024/03/13 11:15:09;;;;;;;25.80;24.13;;;14.30;99.40;;;;;;5034739;28;20447;-67
2024/03/13 11:17:36;;;;;;;26.20;24.60;;;14.20;99.40;;;;;;5031157;28;20452;-67
2024/03/13 11:20:05;;;;;;;31.60;30.10;;;13.90;99.20;;;;;;5051584;28;20447;-67
2024/03/13 11:22:32;;;;;;;37.33;35.23;;;13.80;99.20;;;;;;5036058;28;20476;-67
2024/03/13 11:25:00;;;;;;;42.53;40.43;;;13.50;99.10;;;;;;5036260;28;20479;-66
2024/03/13 11:27:28;;;;;;;49.93;47.83;;;13.40;99.90;;;;;;5031029;28;20471;-67
2024/03/13 11:29:55;;;;;;;68.60;65.90;;;13.40;99.90;;;;;;5049049;28;20477;-67
2024/03/13 11:32:23;;;;;;;76.43;73.33;;;13.50;99.90;;;;;;5034747;28;20450;-67
2024/03/13 11:34:50;;;;;;;72.87;69.90;;;13.60;99.10;;;;;;5034615;28;20446;-67
2024/03/13 11:37:17;;;;;;;69.60;66.83;;;13.60;99.10;;;;;;5030905;28;20499;-66
2024/03/13 11:39:43;;;;;;;49.53;47.40;;;13.60;99.10;;;;;;5047261;28;20462;-67
2024/03/13 11:42:13;;;;;;;70.03;67.23;;;13.60;99.10;;;;;;5034080;28;20483;-67
2024/03/13 11:44:43;;;;;;;65.83;63.23;;;13.60;99.90;;;;;;5034144;28;20475;-67
2024/03/13 11:47:11;;;;;;;64.10;61.50;;;13.50;99.10;;;;;;5034344;28;20813;-66
2024/03/13 11:49:38;;;;;;;108.43;104.43;;;13.50;99.10;;;;;;5030901;28;20448;-67
2024/03/13 11:52:11;;;;;;;98.53;94.37;;;13.60;99.90;;;;;;5050034;28;20451;-67
2024/03/13 11:54:40;;;;;;;98.40;94.70;;;13.50;99.90;;;;;;5034009;28;20439;-67
2024/03/13 11:57:07;;;;;;;100.93;96.73;;;13.50;99.10;;;;;;5034245;28;20845;-67
2024/03/13 11:59:41;;;;;;;129.40;124.80;;;13.50;99.90;;;;;;5040670;28;20462;-67
2024/03/13 12:02:24;;;;;;;119.07;114.77;;;13.40;99.90;;;;;;5045368;28;20450;-67
2024/03/13 12:04:51;;;;;;;129.63;124.97;;;13.40;99.90;;;;;;5068274;28;20478;-67
2024/03/13 12:07:18;;;;;;;149.70;144.50;;;13.40;99.90;;;;;;5045075;28;20446;-67
2024/03/13 12:09:45;;;;;;;108.40;104.20;;;13.40;99.90;;;;;;5045574;28;20451;-67
2024/03/13 12:12:12;;;;;;;127.10;122.60;;;13.30;99.90;;;;;;5038536;28;20454;-67
2024/03/13 12:14:39;;;;;;;147.07;141.80;;;13.30;99.90;;;;;;5046380;28;20978;-67
2024/03/13 12:17:07;;;;;;;134.70;129.97;;;13.40;99.90;;;;;;5052299;28;20960;-66
2024/03/13 12:19:34;;;;;;;147.17;141.97;;;13.30;99.90;;;;;;5053117;28;20645;-67
2024/03/13 12:22:02;;;;;;;189.33;183.03;;;13.30;99.90;;;;;;5033382;28;20444;-67
2024/03/13 12:24:30;;;;;;;119.93;115.67;;;13.30;99.90;;;;;;5037878;28;20472;-66
2024/03/13 12:26:57;;;;;;;125.50;120.90;;;13.50;99.10;;;;;;5049257;28;20508;-67
2024/03/13 12:29:27;;;;;;;120.47;116.13;;;13.80;99.20;;;;;;5048011;28;20822;-67